AAL91 EDDM-KDFW
Flight info
| Callsign | AAL91 |
|---|---|
| Flight time | N/A |
| Altitude | 36000 |
| Route | INPUD2N INPUD Y102 UPALA Z109 BAMAS L604 GASKA DCT MASEK DCT BIGGE L604 RELBI L602 TENLI DCT MIMVA DCT GETNO DCT LUTOV DCT PIKIL/M082F370 DCT 57N020W 57N030W 57N040W 56N050W DCT JANJO/N0473F380 DCT 5330N06000W 51N070W 46N080W/N0474F400 DCT KC81Q DCT RBS DCT KK45I DCT FSM DCT RRNET SEEVR4 |
| Aircraft | B772/H-SDE2E3FGHIJ5LORVWXY/LB1D1 |
Departure
| Time | 2026-05-04 02:37 |
|---|---|
| Airport | Munich Airport (EDDM) |
Arrival
| Time | N/A |
|---|---|
| Airport | Dallas Fort Worth International Airport (KDFW) |
| Time | Latitude | Longitude | Altitude | Speed | Heading |
|---|---|---|---|---|---|
| 2026-05-04 02:02 | 48.35319 | 11.78299 | 1490 ft | 0 kts | 83° |
| 2026-05-04 02:24 | 48.35317 | 11.78275 | 1486 ft | 4 kts | 83° |
| 2026-05-04 02:24 | 48.35314 | 11.78238 | 1474 ft | 2 kts | 83° |
| 2026-05-04 02:24 | 48.35313 | 11.78203 | 1474 ft | 4 kts | 102° |
| 2026-05-04 02:25 | 48.35324 | 11.78171 | 1474 ft | 4 kts | 150° |
| 2026-05-04 02:25 | 48.35347 | 11.78161 | 1477 ft | 4 kts | 173° |
| 2026-05-04 02:25 | 48.35363 | 11.78158 | 1474 ft | 0 kts | 173° |
| 2026-05-04 02:28 | 48.35321 | 11.78166 | 1487 ft | 10 kts | 173° |
| 2026-05-04 02:28 | 48.35251 | 11.78174 | 1476 ft | 10 kts | 183° |
| 2026-05-04 02:29 | 48.35204 | 11.78107 | 1480 ft | 11 kts | 254° |
| 2026-05-04 02:29 | 48.35190 | 11.77979 | 1486 ft | 13 kts | 263° |
| 2026-05-04 02:29 | 48.35191 | 11.77846 | 1474 ft | 13 kts | 296° |
| 2026-05-04 02:29 | 48.35272 | 11.77797 | 1483 ft | 13 kts | 352° |
| 2026-05-04 02:30 | 48.35395 | 11.77775 | 1483 ft | 22 kts | 353° |
| 2026-05-04 02:30 | 48.35547 | 11.77748 | 1486 ft | 22 kts | 353° |
| 2026-05-04 02:30 | 48.35699 | 11.77721 | 1482 ft | 22 kts | 353° |
| 2026-05-04 02:30 | 48.35850 | 11.77696 | 1490 ft | 21 kts | 354° |
| 2026-05-04 02:31 | 48.35960 | 11.77722 | 1477 ft | 16 kts | 53° |
| 2026-05-04 02:31 | 48.35983 | 11.77887 | 1487 ft | 16 kts | 83° |
| 2026-05-04 02:31 | 48.35996 | 11.78055 | 1485 ft | 16 kts | 84° |
| 2026-05-04 02:31 | 48.36006 | 11.78223 | 1480 ft | 16 kts | 82° |
| 2026-05-04 02:32 | 48.36022 | 11.78400 | 1476 ft | 22 kts | 83° |
| 2026-05-04 02:32 | 48.36044 | 11.78682 | 1490 ft | 28 kts | 83° |
| 2026-05-04 02:32 | 48.36068 | 11.78977 | 1480 ft | 28 kts | 83° |
| 2026-05-04 02:32 | 48.36089 | 11.79272 | 1480 ft | 28 kts | 84° |
| 2026-05-04 02:33 | 48.36112 | 11.79564 | 1490 ft | 28 kts | 83° |
| 2026-05-04 02:33 | 48.36135 | 11.79858 | 1478 ft | 28 kts | 83° |
| 2026-05-04 02:33 | 48.36157 | 11.80153 | 1484 ft | 28 kts | 83° |
| 2026-05-04 02:33 | 48.36180 | 11.80448 | 1480 ft | 28 kts | 84° |
| 2026-05-04 02:34 | 48.36203 | 11.80742 | 1490 ft | 28 kts | 83° |
| 2026-05-04 02:34 | 48.36225 | 11.81036 | 1478 ft | 28 kts | 83° |
| 2026-05-04 02:34 | 48.36249 | 11.81331 | 1485 ft | 28 kts | 83° |
| 2026-05-04 02:34 | 48.36272 | 11.81626 | 1485 ft | 28 kts | 84° |
| 2026-05-04 02:35 | 48.36293 | 11.81920 | 1478 ft | 28 kts | 83° |
| 2026-05-04 02:35 | 48.36340 | 11.82143 | 1479 ft | 21 kts | 26° |
| 2026-05-04 02:35 | 48.36482 | 11.82133 | 1476 ft | 20 kts | 353° |
| 2026-05-04 02:35 | 48.36619 | 11.82095 | 1486 ft | 20 kts | 334° |
| 2026-05-04 02:36 | 48.36673 | 11.81890 | 1486 ft | 37 kts | 263° |
| 2026-05-04 02:36 | 48.36610 | 11.81098 | 1478 ft | 116 kts | 264° |
| 2026-05-04 02:36 | 48.36495 | 11.79525 | 1503 ft | 183 kts | 262° |
| 2026-05-04 02:36 | 48.36335 | 11.77438 | 1870 ft | 214 kts | 263° |
| 2026-05-04 02:37 | 48.36158 | 11.75271 | 2941 ft | 209 kts | 262° |
| 2026-05-04 02:37 | 48.35944 | 11.73001 | 3411 ft | 234 kts | 260° |
| 2026-05-04 02:37 | 48.35675 | 11.70521 | 3720 ft | 245 kts | 268° |
| 2026-05-04 02:37 | 48.36081 | 11.67989 | 3915 ft | 261 kts | 302° |
| 2026-05-04 02:38 | 48.37357 | 11.65998 | 4315 ft | 270 kts | 327° |
| 2026-05-04 02:38 | 48.39094 | 11.64904 | 4890 ft | 274 kts | 349° |
| 2026-05-04 02:38 | 48.40965 | 11.64426 | 5400 ft | 279 kts | 350° |
| 2026-05-04 02:38 | 48.42875 | 11.63883 | 6030 ft | 281 kts | 349° |
| 2026-05-04 02:39 | 48.44810 | 11.63321 | 6652 ft | 285 kts | 349° |
| 2026-05-04 02:39 | 48.46764 | 11.62754 | 7259 ft | 288 kts | 349° |
| 2026-05-04 02:39 | 48.48743 | 11.62177 | 7840 ft | 292 kts | 349° |
| 2026-05-04 02:39 | 48.50740 | 11.61594 | 8521 ft | 292 kts | 348° |
| 2026-05-04 02:40 | 48.52747 | 11.61006 | 9146 ft | 296 kts | 348° |
| 2026-05-04 02:40 | 48.54782 | 11.60406 | 9743 ft | 300 kts | 348° |
| 2026-05-04 02:40 | 48.56844 | 11.59799 | 10281 ft | 305 kts | 347° |
| 2026-05-04 02:40 | 48.58929 | 11.58863 | 10462 ft | 322 kts | 338° |
| 2026-05-04 02:41 | 48.61065 | 11.57530 | 10633 ft | 343 kts | 336° |
| 2026-05-04 02:41 | 48.63327 | 11.56112 | 10882 ft | 360 kts | 336° |
| 2026-05-04 02:41 | 48.65687 | 11.54690 | 11422 ft | 369 kts | 337° |
| 2026-05-04 02:41 | 48.68099 | 11.53274 | 12099 ft | 374 kts | 338° |
| 2026-05-04 02:42 | 48.70535 | 11.51861 | 12880 ft | 376 kts | 338° |
| 2026-05-04 02:42 | 48.72966 | 11.50454 | 13653 ft | 380 kts | 337° |
| 2026-05-04 02:42 | 48.75438 | 11.49020 | 14381 ft | 383 kts | 337° |
| 2026-05-04 02:42 | 48.77937 | 11.47571 | 15037 ft | 387 kts | 337° |
| 2026-05-04 02:43 | 48.80470 | 11.46101 | 15715 ft | 391 kts | 337° |
| 2026-05-04 02:43 | 48.83029 | 11.44614 | 16392 ft | 395 kts | 337° |
| 2026-05-04 02:43 | 48.85608 | 11.43111 | 17055 ft | 399 kts | 337° |
| 2026-05-04 02:43 | 48.88216 | 11.41590 | 17700 ft | 404 kts | 337° |
| 2026-05-04 02:44 | 48.90855 | 11.40049 | 18382 ft | 408 kts | 337° |
| 2026-05-04 02:44 | 48.93520 | 11.38492 | 18988 ft | 411 kts | 337° |
| 2026-05-04 02:44 | 48.96199 | 11.36925 | 19611 ft | 414 kts | 337° |
| 2026-05-04 02:44 | 48.98867 | 11.35363 | 20237 ft | 417 kts | 336° |
| 2026-05-04 02:45 | 49.01594 | 11.33764 | 20836 ft | 421 kts | 337° |
| 2026-05-04 02:45 | 49.04337 | 11.32153 | 21449 ft | 424 kts | 336° |
| 2026-05-04 02:45 | 49.07105 | 11.30527 | 22069 ft | 427 kts | 337° |
| 2026-05-04 02:45 | 49.09886 | 11.28891 | 22700 ft | 430 kts | 337° |
| 2026-05-04 02:46 | 49.12688 | 11.27242 | 23287 ft | 434 kts | 337° |
| 2026-05-04 02:46 | 49.15512 | 11.25577 | 23834 ft | 437 kts | 337° |
| 2026-05-04 02:46 | 49.18360 | 11.23894 | 24323 ft | 440 kts | 337° |
| 2026-05-04 02:46 | 49.21251 | 11.22320 | 24860 ft | 442 kts | 341° |
| 2026-05-04 02:47 | 49.24253 | 11.21207 | 25366 ft | 445 kts | 348° |
| 2026-05-04 02:47 | 49.27311 | 11.20429 | 25834 ft | 447 kts | 349° |
| 2026-05-04 02:47 | 49.30390 | 11.19670 | 26274 ft | 450 kts | 349° |
| 2026-05-04 02:47 | 49.33448 | 11.18911 | 26704 ft | 452 kts | 349° |
| 2026-05-04 02:48 | 49.36567 | 11.18120 | 27036 ft | 457 kts | 348° |
| 2026-05-04 02:48 | 49.39719 | 11.17306 | 27381 ft | 461 kts | 348° |
| 2026-05-04 02:48 | 49.42892 | 11.16478 | 27820 ft | 462 kts | 348° |
| 2026-05-04 02:48 | 49.46063 | 11.15645 | 28307 ft | 463 kts | 348° |
| 2026-05-04 02:49 | 49.49258 | 11.14804 | 28710 ft | 465 kts | 348° |
| 2026-05-04 02:49 | 49.52457 | 11.13962 | 29017 ft | 468 kts | 348° |
| 2026-05-04 02:49 | 49.55682 | 11.13113 | 29337 ft | 471 kts | 348° |
| 2026-05-04 02:49 | 49.58921 | 11.12258 | 29677 ft | 474 kts | 348° |
| 2026-05-04 02:50 | 49.62176 | 11.11400 | 30027 ft | 475 kts | 348° |
| 2026-05-04 02:50 | 49.65399 | 11.10553 | 30328 ft | 477 kts | 348° |
| 2026-05-04 02:50 | 49.68691 | 11.09689 | 30617 ft | 478 kts | 348° |
| 2026-05-04 02:50 | 49.71975 | 11.08827 | 30892 ft | 479 kts | 348° |
| 2026-05-04 02:51 | 49.75271 | 11.07960 | 31127 ft | 481 kts | 348° |
| 2026-05-04 02:51 | 49.78575 | 11.07090 | 31356 ft | 483 kts | 348° |
| 2026-05-04 02:51 | 49.81904 | 11.06210 | 31573 ft | 484 kts | 348° |
| 2026-05-04 02:51 | 49.85174 | 11.05057 | 31794 ft | 481 kts | 339° |
| 2026-05-04 02:52 | 49.88208 | 11.02919 | 32060 ft | 477 kts | 327° |
| 2026-05-04 02:52 | 49.90918 | 11.00000 | 32391 ft | 473 kts | 317° |
| 2026-05-04 02:52 | 49.92492 | 10.97682 | 32568 ft | 468 kts | 311° |
| 2026-05-04 02:52 | 49.95426 | 10.92734 | 32761 ft | 472 kts | 310° |
| 2026-05-04 02:53 | 49.97660 | 10.88992 | 32962 ft | 472 kts | 310° |
| 2026-05-04 02:53 | 49.99907 | 10.85283 | 33334 ft | 470 kts | 310° |
| 2026-05-04 02:53 | 50.01429 | 10.82795 | 33589 ft | 469 kts | 311° |
| 2026-05-04 02:53 | 50.03679 | 10.79130 | 33933 ft | 467 kts | 311° |
| 2026-05-04 02:54 | 50.05901 | 10.75511 | 34192 ft | 467 kts | 311° |
| 2026-05-04 02:54 | 50.08142 | 10.71850 | 34411 ft | 467 kts | 311° |
| 2026-05-04 02:54 | 50.10389 | 10.68188 | 34652 ft | 466 kts | 311° |
| 2026-05-04 02:54 | 50.12630 | 10.64540 | 34900 ft | 466 kts | 311° |
| 2026-05-04 02:55 | 50.17100 | 10.57242 | 35354 ft | 466 kts | 310° |
| 2026-05-04 02:55 | 50.19324 | 10.53553 | 35499 ft | 467 kts | 310° |
| 2026-05-04 02:55 | 50.21538 | 10.49848 | 35726 ft | 466 kts | 310° |
| 2026-05-04 02:56 | 50.23756 | 10.46170 | 35957 ft | 466 kts | 310° |
| 2026-05-04 02:56 | 50.28282 | 10.38947 | 36046 ft | 468 kts | 311° |
| 2026-05-04 02:57 | 50.32834 | 10.31706 | 36037 ft | 464 kts | 311° |
| 2026-05-04 02:57 | 50.37291 | 10.24412 | 36055 ft | 462 kts | 308° |
| 2026-05-04 02:58 | 50.41507 | 10.16808 | 36055 ft | 462 kts | 307° |
| 2026-05-04 02:58 | 50.45671 | 10.09190 | 36048 ft | 463 kts | 307° |
| 2026-05-04 02:59 | 50.49922 | 10.01498 | 36059 ft | 464 kts | 307° |
| 2026-05-04 02:59 | 50.54144 | 9.93887 | 36050 ft | 465 kts | 307° |
| 2026-05-04 03:00 | 50.58393 | 9.86206 | 36050 ft | 465 kts | 307° |
| 2026-05-04 03:00 | 50.62637 | 9.78507 | 36052 ft | 466 kts | 307° |
| 2026-05-04 03:01 | 50.66892 | 9.70766 | 36036 ft | 466 kts | 307° |
| 2026-05-04 03:01 | 50.71137 | 9.63024 | 36038 ft | 466 kts | 307° |
| 2026-05-04 03:02 | 50.75319 | 9.55274 | 36036 ft | 466 kts | 306° |
| 2026-05-04 03:02 | 50.79431 | 9.47368 | 36029 ft | 465 kts | 305° |
| 2026-05-04 03:03 | 50.83537 | 9.39425 | 36038 ft | 465 kts | 305° |
| 2026-05-04 03:03 | 50.87648 | 9.31486 | 36030 ft | 466 kts | 305° |
| 2026-05-04 03:04 | 50.91766 | 9.23528 | 36024 ft | 467 kts | 305° |
| 2026-05-04 03:04 | 50.95885 | 9.15550 | 36019 ft | 467 kts | 305° |
| 2026-05-04 03:05 | 50.99973 | 9.07606 | 36028 ft | 467 kts | 305° |
| 2026-05-04 03:05 | 51.04078 | 8.99600 | 36020 ft | 467 kts | 305° |
| 2026-05-04 03:06 | 51.08181 | 8.91574 | 36016 ft | 467 kts | 305° |
| 2026-05-04 03:06 | 51.12277 | 8.83538 | 36007 ft | 467 kts | 304° |
| 2026-05-04 03:07 | 51.16363 | 8.75497 | 36001 ft | 466 kts | 304° |
| 2026-05-04 03:07 | 51.20438 | 8.67452 | 35999 ft | 466 kts | 304° |
| 2026-05-04 03:08 | 51.24513 | 8.59383 | 36011 ft | 466 kts | 304° |
| 2026-05-04 03:08 | 51.28562 | 8.51341 | 36008 ft | 468 kts | 304° |
| 2026-05-04 03:09 | 51.32649 | 8.43199 | 35993 ft | 469 kts | 304° |
| 2026-05-04 03:09 | 51.36744 | 8.35049 | 35967 ft | 469 kts | 304° |
| 2026-05-04 03:10 | 51.40837 | 8.26905 | 35965 ft | 469 kts | 304° |
| 2026-05-04 03:10 | 51.44897 | 8.18802 | 35959 ft | 469 kts | 304° |
| 2026-05-04 03:11 | 51.49010 | 8.10569 | 35962 ft | 469 kts | 304° |
| 2026-05-04 03:11 | 51.53060 | 8.02427 | 35952 ft | 469 kts | 304° |
| 2026-05-04 03:12 | 51.57126 | 7.94228 | 35952 ft | 469 kts | 303° |
| 2026-05-04 03:12 | 51.61194 | 7.86003 | 35943 ft | 469 kts | 303° |
| 2026-05-04 03:13 | 51.65253 | 7.77767 | 35943 ft | 469 kts | 303° |
| 2026-05-04 03:13 | 51.69300 | 7.69529 | 35949 ft | 469 kts | 303° |
| 2026-05-04 03:14 | 51.73324 | 7.61312 | 35942 ft | 470 kts | 303° |
| 2026-05-04 03:14 | 51.77364 | 7.53036 | 35937 ft | 469 kts | 303° |
| 2026-05-04 03:15 | 51.81401 | 7.44740 | 35949 ft | 469 kts | 303° |
| 2026-05-04 03:15 | 51.85434 | 7.36425 | 35936 ft | 470 kts | 303° |
| 2026-05-04 03:16 | 51.89461 | 7.28093 | 35939 ft | 470 kts | 302° |
| 2026-05-04 03:16 | 51.93489 | 7.19734 | 35933 ft | 471 kts | 302° |
| 2026-05-04 03:17 | 51.97520 | 7.11343 | 35928 ft | 471 kts | 302° |
| 2026-05-04 03:17 | 52.01517 | 7.02997 | 35921 ft | 471 kts | 302° |
| 2026-05-04 03:18 | 52.05539 | 6.94570 | 35924 ft | 471 kts | 302° |
| 2026-05-04 03:18 | 52.09547 | 6.86147 | 35947 ft | 471 kts | 302° |
| 2026-05-04 03:19 | 52.13110 | 6.77367 | 35924 ft | 462 kts | 290° |
| 2026-05-04 03:19 | 52.15374 | 6.67696 | 35914 ft | 455 kts | 283° |
| 2026-05-04 03:20 | 52.17416 | 6.57917 | 35907 ft | 456 kts | 283° |
| 2026-05-04 03:20 | 52.19533 | 6.48145 | 35913 ft | 457 kts | 284° |
| 2026-05-04 03:21 | 52.21667 | 6.38441 | 35937 ft | 457 kts | 283° |
| 2026-05-04 03:21 | 52.23806 | 6.28649 | 35909 ft | 458 kts | 283° |
| 2026-05-04 03:22 | 52.26338 | 6.19055 | 35915 ft | 463 kts | 290° |
| 2026-05-04 03:22 | 52.29259 | 6.09665 | 35906 ft | 463 kts | 290° |
| 2026-05-04 03:23 | 52.32144 | 6.00352 | 35909 ft | 462 kts | 290° |
| 2026-05-04 03:23 | 52.35039 | 5.90897 | 35925 ft | 463 kts | 290° |
| 2026-05-04 03:24 | 52.37890 | 5.81503 | 35910 ft | 465 kts | 290° |
| 2026-05-04 03:24 | 52.40762 | 5.72004 | 35912 ft | 465 kts | 289° |
| 2026-05-04 03:25 | 52.43627 | 5.62491 | 35913 ft | 465 kts | 289° |
| 2026-05-04 03:25 | 52.46490 | 5.52951 | 35911 ft | 465 kts | 289° |
| 2026-05-04 03:26 | 52.49321 | 5.43476 | 35922 ft | 466 kts | 289° |
| 2026-05-04 03:26 | 52.52173 | 5.33894 | 35908 ft | 467 kts | 289° |
| 2026-05-04 03:27 | 52.55020 | 5.24290 | 35911 ft | 467 kts | 289° |
| 2026-05-04 03:27 | 52.57857 | 5.14684 | 35913 ft | 467 kts | 289° |
| 2026-05-04 03:28 | 52.60667 | 5.05131 | 35917 ft | 466 kts | 289° |
| 2026-05-04 03:28 | 52.63489 | 4.95495 | 35931 ft | 469 kts | 289° |
| 2026-05-04 03:29 | 52.66300 | 4.85853 | 35901 ft | 471 kts | 289° |
| 2026-05-04 03:29 | 52.69130 | 4.76119 | 35923 ft | 470 kts | 289° |
| 2026-05-04 03:30 | 52.71949 | 4.66376 | 35908 ft | 470 kts | 288° |
| 2026-05-04 03:30 | 52.74755 | 4.56642 | 35882 ft | 469 kts | 288° |
| 2026-05-04 03:31 | 52.77523 | 4.47000 | 35910 ft | 467 kts | 288° |
| 2026-05-04 03:31 | 52.80296 | 4.37294 | 35907 ft | 466 kts | 288° |
| 2026-05-04 03:32 | 52.83057 | 4.27589 | 35918 ft | 467 kts | 288° |
| 2026-05-04 03:32 | 52.85819 | 4.17839 | 35907 ft | 468 kts | 288° |
| 2026-05-04 03:33 | 52.88578 | 4.08067 | 35929 ft | 469 kts | 288° |
| 2026-05-04 03:33 | 52.91344 | 3.98224 | 35901 ft | 473 kts | 288° |
| 2026-05-04 03:34 | 52.94092 | 3.88406 | 35904 ft | 471 kts | 288° |
| 2026-05-04 03:34 | 52.96840 | 3.78553 | 35909 ft | 470 kts | 288° |
| 2026-05-04 03:35 | 52.99573 | 3.68706 | 35912 ft | 470 kts | 288° |
| 2026-05-04 03:35 | 53.02300 | 3.58840 | 35882 ft | 469 kts | 288° |
| 2026-05-04 03:36 | 53.05002 | 3.49025 | 35889 ft | 470 kts | 288° |
| 2026-05-04 03:36 | 53.07714 | 3.39138 | 35882 ft | 470 kts | 287° |
| 2026-05-04 03:37 | 53.10290 | 3.29152 | 35862 ft | 465 kts | 282° |
| 2026-05-04 03:37 | 53.11939 | 3.18845 | 35865 ft | 459 kts | 277° |
| 2026-05-04 03:38 | 53.13441 | 3.08557 | 35863 ft | 460 kts | 277° |
| 2026-05-04 03:38 | 53.14972 | 2.98182 | 35898 ft | 463 kts | 277° |
| 2026-05-04 03:39 | 53.16526 | 2.87746 | 35887 ft | 465 kts | 277° |
| 2026-05-04 03:39 | 53.18085 | 2.77266 | 35891 ft | 466 kts | 277° |
| 2026-05-04 03:40 | 53.19638 | 2.66766 | 35891 ft | 466 kts | 277° |
| 2026-05-04 03:40 | 53.20921 | 2.58031 | 35876 ft | 466 kts | 277° |
| 2026-05-04 03:41 | 53.22703 | 2.45801 | 35889 ft | 467 kts | 277° |
| 2026-05-04 03:41 | 53.23980 | 2.36976 | 35886 ft | 467 kts | 277° |
| 2026-05-04 03:42 | 53.25497 | 2.26434 | 35885 ft | 467 kts | 277° |
| 2026-05-04 03:42 | 53.27005 | 2.15880 | 35883 ft | 467 kts | 277° |
| 2026-05-04 03:43 | 53.28492 | 2.05397 | 35882 ft | 467 kts | 277° |
| 2026-05-04 03:43 | 53.29985 | 1.94810 | 35887 ft | 467 kts | 278° |
| 2026-05-04 03:44 | 53.31466 | 1.84222 | 35881 ft | 467 kts | 278° |
| 2026-05-04 03:44 | 53.32936 | 1.73647 | 35882 ft | 466 kts | 278° |
| 2026-05-04 03:45 | 53.34386 | 1.63134 | 35882 ft | 466 kts | 277° |
| 2026-05-04 03:45 | 53.35837 | 1.52541 | 35907 ft | 466 kts | 278° |
| 2026-05-04 03:46 | 53.37281 | 1.41925 | 35882 ft | 467 kts | 278° |
| 2026-05-04 03:46 | 53.38708 | 1.31357 | 35877 ft | 468 kts | 278° |
| 2026-05-04 03:47 | 53.40135 | 1.20718 | 35878 ft | 468 kts | 278° |
| 2026-05-04 03:47 | 53.41555 | 1.10047 | 35877 ft | 468 kts | 278° |
| 2026-05-04 03:48 | 53.42958 | 0.99425 | 35886 ft | 468 kts | 278° |
| 2026-05-04 03:48 | 53.44358 | 0.88750 | 35875 ft | 469 kts | 278° |
| 2026-05-04 03:49 | 53.45753 | 0.78035 | 35870 ft | 469 kts | 278° |
| 2026-05-04 03:49 | 53.47137 | 0.67319 | 35872 ft | 469 kts | 278° |
| 2026-05-04 03:50 | 53.48503 | 0.56670 | 35865 ft | 469 kts | 278° |
| 2026-05-04 03:50 | 53.49866 | 0.45949 | 35875 ft | 469 kts | 278° |
| 2026-05-04 03:51 | 53.51222 | 0.35211 | 35863 ft | 469 kts | 278° |
| 2026-05-04 03:51 | 53.52569 | 0.24458 | 35867 ft | 469 kts | 278° |
| 2026-05-04 03:52 | 53.53896 | 0.13780 | 35857 ft | 469 kts | 278° |
| 2026-05-04 03:52 | 53.55221 | 0.03035 | 35865 ft | 469 kts | 278° |
| 2026-05-04 03:53 | 53.56538 | -0.07730 | 35886 ft | 469 kts | 278° |
| 2026-05-04 03:53 | 53.57837 | -0.18428 | 35887 ft | 470 kts | 278° |
| 2026-05-04 03:54 | 53.59135 | -0.29210 | 35886 ft | 470 kts | 278° |
| 2026-05-04 03:54 | 53.60424 | -0.39997 | 35884 ft | 470 kts | 278° |
| 2026-05-04 03:55 | 53.61706 | -0.50820 | 35891 ft | 470 kts | 278° |
| 2026-05-04 03:55 | 53.62976 | -0.61632 | 35872 ft | 471 kts | 278° |
| 2026-05-04 03:56 | 53.64237 | -0.72450 | 35871 ft | 470 kts | 278° |
| 2026-05-04 03:56 | 53.65479 | -0.83194 | 35871 ft | 470 kts | 277° |
| 2026-05-04 03:57 | 53.66720 | -0.94025 | 35865 ft | 469 kts | 277° |
| 2026-05-04 03:57 | 53.67949 | -1.04840 | 35880 ft | 469 kts | 277° |
| 2026-05-04 03:58 | 53.69772 | -1.21064 | 35869 ft | 470 kts | 277° |
| 2026-05-04 03:58 | 53.70979 | -1.31914 | 35885 ft | 471 kts | 277° |
| 2026-05-04 03:59 | 53.72179 | -1.42798 | 35885 ft | 471 kts | 277° |
| 2026-05-04 03:59 | 53.73363 | -1.53625 | 35886 ft | 471 kts | 277° |
| 2026-05-04 04:00 | 53.74542 | -1.64522 | 35886 ft | 471 kts | 277° |
| 2026-05-04 04:00 | 53.75713 | -1.75427 | 35884 ft | 472 kts | 277° |
| 2026-05-04 04:01 | 53.76877 | -1.86363 | 35882 ft | 472 kts | 277° |
| 2026-05-04 04:01 | 53.78028 | -1.97283 | 35897 ft | 472 kts | 277° |
| 2026-05-04 04:02 | 53.79171 | -2.08220 | 35892 ft | 472 kts | 277° |
| 2026-05-04 04:02 | 53.80296 | -2.19099 | 35899 ft | 472 kts | 277° |
| 2026-05-04 04:03 | 53.81419 | -2.30061 | 35893 ft | 473 kts | 277° |
| 2026-05-04 04:03 | 53.82533 | -2.41027 | 35897 ft | 472 kts | 277° |
| 2026-05-04 04:04 | 53.83639 | -2.52015 | 35904 ft | 472 kts | 277° |
| 2026-05-04 04:04 | 53.84726 | -2.62923 | 35907 ft | 473 kts | 277° |
| 2026-05-04 04:05 | 53.85810 | -2.73912 | 35901 ft | 473 kts | 277° |
| 2026-05-04 04:05 | 53.86886 | -2.84918 | 35900 ft | 473 kts | 277° |
| 2026-05-04 04:06 | 53.87952 | -2.95935 | 35918 ft | 473 kts | 277° |
| 2026-05-04 04:06 | 53.89007 | -3.06945 | 35908 ft | 473 kts | 277° |
| 2026-05-04 04:07 | 53.90053 | -3.17972 | 35924 ft | 473 kts | 277° |
| 2026-05-04 04:07 | 53.91085 | -3.28950 | 35917 ft | 474 kts | 276° |
| 2026-05-04 04:08 | 53.92115 | -3.39994 | 35912 ft | 473 kts | 276° |
| 2026-05-04 04:08 | 53.93382 | -3.50981 | 35909 ft | 475 kts | 284° |
| 2026-05-04 04:09 | 53.95689 | -3.61507 | 35929 ft | 476 kts | 289° |
| 2026-05-04 04:09 | 53.98180 | -3.71954 | 35932 ft | 477 kts | 290° |
| 2026-05-04 04:10 | 54.00642 | -3.82417 | 35925 ft | 477 kts | 289° |
| 2026-05-04 04:10 | 54.03065 | -3.92867 | 35932 ft | 477 kts | 289° |
| 2026-05-04 04:11 | 54.05488 | -4.03406 | 35931 ft | 477 kts | 289° |
| 2026-05-04 04:11 | 54.07902 | -4.13960 | 35932 ft | 478 kts | 289° |
| 2026-05-04 04:12 | 54.10304 | -4.24512 | 35950 ft | 478 kts | 289° |
| 2026-05-04 04:12 | 54.12693 | -4.35053 | 35940 ft | 479 kts | 289° |
| 2026-05-04 04:13 | 54.15091 | -4.45686 | 35934 ft | 480 kts | 289° |
| 2026-05-04 04:13 | 54.17478 | -4.56327 | 35934 ft | 479 kts | 289° |
| 2026-05-04 04:14 | 54.19839 | -4.66905 | 35946 ft | 478 kts | 289° |
| 2026-05-04 04:14 | 54.22198 | -4.77531 | 35939 ft | 477 kts | 289° |
| 2026-05-04 04:15 | 54.24543 | -4.88151 | 35941 ft | 477 kts | 289° |
| 2026-05-04 04:15 | 54.26868 | -4.98725 | 35952 ft | 478 kts | 289° |
| 2026-05-04 04:16 | 54.29201 | -5.09390 | 35953 ft | 478 kts | 289° |
| 2026-05-04 04:16 | 54.31524 | -5.20073 | 35954 ft | 478 kts | 289° |
| 2026-05-04 04:17 | 54.33825 | -5.30703 | 35955 ft | 478 kts | 289° |
| 2026-05-04 04:17 | 54.36128 | -5.41400 | 35965 ft | 479 kts | 289° |
| 2026-05-04 04:18 | 54.38427 | -5.52137 | 35967 ft | 478 kts | 289° |
| 2026-05-04 04:18 | 54.40710 | -5.62849 | 35976 ft | 478 kts | 289° |
| 2026-05-04 04:19 | 54.42988 | -5.73601 | 35949 ft | 479 kts | 289° |
| 2026-05-04 04:19 | 54.45253 | -5.84344 | 35971 ft | 478 kts | 289° |
| 2026-05-04 04:20 | 54.47504 | -5.95078 | 35971 ft | 478 kts | 289° |
| 2026-05-04 04:20 | 54.49735 | -6.05774 | 35962 ft | 477 kts | 288° |
| 2026-05-04 04:21 | 54.51964 | -6.16526 | 35965 ft | 477 kts | 289° |
| 2026-05-04 04:21 | 54.54185 | -6.27285 | 35973 ft | 476 kts | 289° |
| 2026-05-04 04:22 | 54.56397 | -6.38063 | 35971 ft | 477 kts | 288° |
| 2026-05-04 04:22 | 54.58599 | -6.48853 | 35971 ft | 477 kts | 289° |
| 2026-05-04 04:23 | 54.60791 | -6.59652 | 35974 ft | 476 kts | 289° |
| 2026-05-04 04:23 | 54.62968 | -6.70433 | 35974 ft | 475 kts | 289° |
| 2026-05-04 04:24 | 54.65133 | -6.81212 | 35976 ft | 475 kts | 289° |
| 2026-05-04 04:24 | 54.67287 | -6.92001 | 35982 ft | 475 kts | 289° |
| 2026-05-04 04:25 | 54.69430 | -7.02789 | 35987 ft | 475 kts | 289° |
| 2026-05-04 04:25 | 54.71565 | -7.13598 | 35981 ft | 475 kts | 289° |
| 2026-05-04 04:26 | 54.73678 | -7.24359 | 35981 ft | 476 kts | 289° |
| 2026-05-04 04:26 | 54.75799 | -7.35220 | 35985 ft | 476 kts | 289° |
| 2026-05-04 04:27 | 54.77572 | -7.44345 | 35984 ft | 476 kts | 289° |
| 2026-05-04 04:27 | 54.79661 | -7.55156 | 35988 ft | 476 kts | 289° |
| 2026-05-04 04:28 | 54.81759 | -7.66062 | 35982 ft | 476 kts | 289° |
| 2026-05-04 04:28 | 54.83843 | -7.76964 | 35990 ft | 476 kts | 289° |
| 2026-05-04 04:29 | 54.85915 | -7.87873 | 35981 ft | 476 kts | 289° |
| 2026-05-04 04:29 | 54.87977 | -7.98793 | 35990 ft | 476 kts | 289° |
| 2026-05-04 04:30 | 54.90019 | -8.09658 | 35996 ft | 476 kts | 288° |
| 2026-05-04 04:30 | 54.92064 | -8.20606 | 35983 ft | 476 kts | 289° |
| 2026-05-04 04:31 | 54.94102 | -8.31584 | 35996 ft | 477 kts | 288° |
| 2026-05-04 04:31 | 54.96131 | -8.42576 | 35999 ft | 477 kts | 289° |
| 2026-05-04 04:32 | 54.98153 | -8.53596 | 35997 ft | 478 kts | 289° |
| 2026-05-04 04:32 | 55.00165 | -8.64623 | 35995 ft | 477 kts | 288° |
| 2026-05-04 04:33 | 55.02153 | -8.75589 | 35995 ft | 477 kts | 288° |
| 2026-05-04 04:33 | 55.04140 | -8.86622 | 35994 ft | 477 kts | 289° |
| 2026-05-04 04:34 | 55.06122 | -8.97672 | 36009 ft | 477 kts | 289° |
| 2026-05-04 04:34 | 55.08091 | -9.08723 | 36015 ft | 477 kts | 288° |
| 2026-05-04 04:35 | 55.10054 | -9.19818 | 36013 ft | 478 kts | 289° |
| 2026-05-04 04:35 | 55.11993 | -9.30843 | 36022 ft | 478 kts | 289° |
| 2026-05-04 04:36 | 55.13943 | -9.41985 | 36011 ft | 478 kts | 289° |
| 2026-05-04 04:36 | 55.15875 | -9.53107 | 36021 ft | 478 kts | 289° |
| 2026-05-04 04:37 | 55.19703 | -9.75335 | 36035 ft | 478 kts | 289° |
| 2026-05-04 04:38 | 55.21610 | -9.86503 | 36032 ft | 478 kts | 289° |
| 2026-05-04 04:38 | 55.23506 | -9.97675 | 36032 ft | 478 kts | 289° |
| 2026-05-04 04:39 | 55.25421 | -10.08851 | 36035 ft | 478 kts | 289° |
| 2026-05-04 04:39 | 55.27368 | -10.19983 | 36056 ft | 478 kts | 290° |
| 2026-05-04 04:40 | 55.29315 | -10.31156 | 36052 ft | 478 kts | 290° |
| 2026-05-04 04:40 | 55.31233 | -10.42255 | 36056 ft | 478 kts | 289° |
| 2026-05-04 04:41 | 55.33150 | -10.53459 | 36057 ft | 478 kts | 290° |
| 2026-05-04 04:41 | 55.35051 | -10.64652 | 36059 ft | 476 kts | 289° |
| 2026-05-04 04:42 | 55.36933 | -10.75779 | 36070 ft | 474 kts | 289° |
| 2026-05-04 04:42 | 55.38803 | -10.86913 | 36074 ft | 473 kts | 289° |
| 2026-05-04 04:43 | 55.40644 | -10.97940 | 36083 ft | 473 kts | 289° |
| 2026-05-04 04:43 | 55.42487 | -11.09050 | 36083 ft | 473 kts | 289° |
| 2026-05-04 04:44 | 55.44324 | -11.20192 | 36088 ft | 473 kts | 289° |
| 2026-05-04 04:44 | 55.46148 | -11.31338 | 36074 ft | 473 kts | 289° |
| 2026-05-04 04:45 | 55.47951 | -11.42420 | 36093 ft | 473 kts | 289° |
| 2026-05-04 04:47 | 55.54214 | -11.81496 | 36102 ft | 473 kts | 288° |
| 2026-05-04 04:47 | 55.55985 | -11.92702 | 36111 ft | 473 kts | 288° |
| 2026-05-04 04:48 | 55.57743 | -12.03913 | 36114 ft | 473 kts | 288° |
| 2026-05-04 04:49 | 55.62097 | -12.31994 | 36117 ft | 473 kts | 288° |
| 2026-05-04 04:49 | 55.63811 | -12.43185 | 36112 ft | 473 kts | 288° |
| 2026-05-04 04:50 | 55.65520 | -12.54419 | 36119 ft | 472 kts | 288° |
| 2026-05-04 04:50 | 55.67217 | -12.65651 | 36128 ft | 470 kts | 288° |
| 2026-05-04 04:51 | 55.68889 | -12.76794 | 36127 ft | 469 kts | 288° |
| 2026-05-04 04:51 | 55.70553 | -12.87960 | 36130 ft | 468 kts | 288° |
| 2026-05-04 04:52 | 55.72204 | -12.99115 | 36127 ft | 467 kts | 288° |
| 2026-05-04 04:52 | 55.73846 | -13.10282 | 36127 ft | 467 kts | 288° |
| 2026-05-04 04:53 | 55.75468 | -13.21395 | 36143 ft | 467 kts | 288° |
| 2026-05-04 04:53 | 55.77088 | -13.32574 | 36137 ft | 468 kts | 288° |
| 2026-05-04 04:54 | 55.78702 | -13.43792 | 36141 ft | 468 kts | 287° |
| 2026-05-04 04:54 | 55.80306 | -13.55016 | 36144 ft | 469 kts | 287° |
| 2026-05-04 04:55 | 55.81902 | -13.66268 | 36128 ft | 469 kts | 287° |
| 2026-05-04 04:55 | 55.83486 | -13.77524 | 36143 ft | 468 kts | 287° |
| 2026-05-04 04:56 | 55.85048 | -13.88694 | 36148 ft | 467 kts | 287° |
| 2026-05-04 04:56 | 55.86606 | -13.99924 | 36150 ft | 467 kts | 287° |
| 2026-05-04 04:57 | 55.88155 | -14.11165 | 36149 ft | 467 kts | 287° |
| 2026-05-04 04:57 | 55.89693 | -14.22413 | 36153 ft | 467 kts | 287° |
| 2026-05-04 04:58 | 55.91219 | -14.33655 | 36147 ft | 467 kts | 287° |
| 2026-05-04 04:58 | 55.92734 | -14.44897 | 36162 ft | 467 kts | 287° |
| 2026-05-04 04:59 | 55.94240 | -14.56160 | 36159 ft | 467 kts | 287° |
| 2026-05-04 04:59 | 55.95730 | -14.67388 | 36164 ft | 467 kts | 287° |
| 2026-05-04 05:00 | 55.97220 | -14.78695 | 36167 ft | 467 kts | 286° |
| 2026-05-04 05:01 | 55.99433 | -14.95632 | 36162 ft | 466 kts | 287° |
| 2026-05-04 05:01 | 56.01372 | -15.06533 | 36169 ft | 460 kts | 295° |
| 2026-05-04 05:02 | 56.03788 | -15.17127 | 36178 ft | 460 kts | 295° |
| 2026-05-04 05:02 | 56.06197 | -15.27745 | 36177 ft | 461 kts | 295° |
| 2026-05-04 05:03 | 56.08583 | -15.38416 | 36177 ft | 461 kts | 295° |
| 2026-05-04 05:04 | 56.13302 | -15.59808 | 36172 ft | 461 kts | 294° |
| 2026-05-04 05:04 | 56.15628 | -15.70436 | 36186 ft | 460 kts | 294° |
| 2026-05-04 05:06 | 56.24854 | -16.13130 | 36191 ft | 458 kts | 294° |
| 2026-05-04 05:07 | 56.27142 | -16.23855 | 36175 ft | 458 kts | 294° |
| 2026-05-04 05:07 | 56.29417 | -16.34578 | 36190 ft | 458 kts | 294° |
| 2026-05-04 05:09 | 56.39516 | -16.82871 | 36199 ft | 457 kts | 293° |
| 2026-05-04 05:10 | 56.41733 | -16.93631 | 36178 ft | 457 kts | 293° |
| 2026-05-04 05:10 | 56.43943 | -17.04408 | 36200 ft | 457 kts | 293° |
| 2026-05-04 05:11 | 56.46142 | -17.15196 | 36204 ft | 457 kts | 293° |
| 2026-05-04 05:11 | 56.48316 | -17.25916 | 36199 ft | 457 kts | 292° |
| 2026-05-04 05:12 | 56.50498 | -17.36737 | 36198 ft | 457 kts | 292° |
| 2026-05-04 05:12 | 56.52669 | -17.47562 | 36193 ft | 457 kts | 292° |
| 2026-05-04 05:13 | 56.54828 | -17.58387 | 36199 ft | 457 kts | 292° |
| 2026-05-04 05:13 | 56.56981 | -17.69239 | 36191 ft | 457 kts | 292° |
| 2026-05-04 05:14 | 56.59110 | -17.80028 | 36203 ft | 457 kts | 292° |
| 2026-05-04 05:14 | 56.61243 | -17.90897 | 36204 ft | 457 kts | 292° |
| 2026-05-04 05:15 | 56.63365 | -18.01776 | 36194 ft | 457 kts | 292° |
| 2026-05-04 05:15 | 56.65121 | -18.10823 | 36196 ft | 457 kts | 292° |
| 2026-05-04 05:16 | 56.67569 | -18.23507 | 36194 ft | 457 kts | 292° |
| 2026-05-04 05:16 | 56.69662 | -18.34416 | 36192 ft | 457 kts | 291° |
| 2026-05-04 05:17 | 56.71409 | -18.43569 | 36194 ft | 457 kts | 291° |
| 2026-05-04 05:17 | 56.73474 | -18.54443 | 36195 ft | 457 kts | 291° |
| 2026-05-04 05:18 | 56.75543 | -18.65403 | 36191 ft | 457 kts | 291° |
| 2026-05-04 05:18 | 56.77602 | -18.76377 | 36195 ft | 457 kts | 291° |
| 2026-05-04 05:19 | 56.79652 | -18.87363 | 36196 ft | 457 kts | 291° |
| 2026-05-04 05:19 | 56.81678 | -18.98282 | 36185 ft | 457 kts | 291° |
| 2026-05-04 05:20 | 56.83703 | -19.09258 | 36183 ft | 456 kts | 291° |
| 2026-05-04 05:20 | 56.85724 | -19.20277 | 36193 ft | 456 kts | 291° |
| 2026-05-04 05:21 | 56.87716 | -19.31205 | 36191 ft | 456 kts | 290° |
| 2026-05-04 05:21 | 56.89712 | -19.42214 | 36193 ft | 456 kts | 290° |
| 2026-05-04 05:22 | 56.91699 | -19.53244 | 36191 ft | 456 kts | 290° |
| 2026-05-04 05:22 | 56.93675 | -19.64271 | 36195 ft | 456 kts | 290° |
| 2026-05-04 05:23 | 56.95646 | -19.75333 | 36188 ft | 456 kts | 290° |
| 2026-05-04 05:23 | 56.97592 | -19.86313 | 36185 ft | 456 kts | 290° |
| 2026-05-04 05:24 | 56.99478 | -19.97406 | 36191 ft | 457 kts | 286° |
| 2026-05-04 05:24 | 57.00433 | -20.08968 | 36193 ft | 460 kts | 276° |
| 2026-05-04 05:25 | 57.00838 | -20.20694 | 36196 ft | 460 kts | 276° |
| 2026-05-04 05:25 | 57.01245 | -20.32447 | 36196 ft | 461 kts | 276° |
| 2026-05-04 05:26 | 57.01662 | -20.44110 | 36195 ft | 461 kts | 276° |
| 2026-05-04 05:26 | 57.02083 | -20.55863 | 36192 ft | 460 kts | 276° |
| 2026-05-04 05:28 | 57.03661 | -21.02787 | 36198 ft | 460 kts | 276° |
| 2026-05-04 05:29 | 57.04029 | -21.14532 | 36188 ft | 460 kts | 275° |
| 2026-05-04 05:29 | 57.04383 | -21.26243 | 36201 ft | 459 kts | 275° |
| 2026-05-04 05:31 | 57.05692 | -21.73086 | 36201 ft | 459 kts | 275° |
| 2026-05-04 05:32 | 57.05993 | -21.84818 | 36204 ft | 459 kts | 275° |
| 2026-05-04 05:33 | 57.06421 | -22.02340 | 36210 ft | 459 kts | 275° |
| 2026-05-04 05:33 | 57.06694 | -22.14083 | 36203 ft | 460 kts | 274° |
| 2026-05-04 05:34 | 57.06957 | -22.25836 | 36201 ft | 459 kts | 274° |
| 2026-05-04 05:34 | 57.07207 | -22.37565 | 36209 ft | 459 kts | 274° |
| 2026-05-04 05:35 | 57.07447 | -22.49299 | 36201 ft | 459 kts | 274° |
| 2026-05-04 05:35 | 57.07675 | -22.60948 | 36215 ft | 458 kts | 274° |
| 2026-05-04 05:36 | 57.07893 | -22.72689 | 36205 ft | 458 kts | 274° |
| 2026-05-04 05:36 | 57.08100 | -22.84410 | 36205 ft | 458 kts | 274° |
| 2026-05-04 05:37 | 57.08296 | -22.96133 | 36205 ft | 458 kts | 274° |
| 2026-05-04 05:37 | 57.08481 | -23.07861 | 36199 ft | 458 kts | 274° |
| 2026-05-04 05:38 | 57.08736 | -23.25312 | 36211 ft | 456 kts | 274° |
| 2026-05-04 05:38 | 57.08892 | -23.36976 | 36209 ft | 456 kts | 274° |
| 2026-05-04 05:39 | 57.09107 | -23.54463 | 36212 ft | 456 kts | 273° |
| 2026-05-04 05:40 | 57.09298 | -23.71949 | 36209 ft | 456 kts | 273° |
| 2026-05-04 05:40 | 57.09412 | -23.83591 | 36216 ft | 455 kts | 273° |
| 2026-05-04 05:41 | 57.09514 | -23.95169 | 36210 ft | 454 kts | 273° |
| 2026-05-04 05:41 | 57.09605 | -24.06772 | 36218 ft | 454 kts | 273° |
| 2026-05-04 05:42 | 57.09686 | -24.18382 | 36223 ft | 453 kts | 272° |
| 2026-05-04 05:42 | 57.09755 | -24.29919 | 36222 ft | 453 kts | 272° |
| 2026-05-04 05:43 | 57.09815 | -24.41503 | 36216 ft | 453 kts | 272° |
| 2026-05-04 05:45 | 57.09945 | -24.87807 | 36223 ft | 453 kts | 272° |
| 2026-05-04 05:47 | 57.09905 | -25.34159 | 36226 ft | 453 kts | 271° |
| 2026-05-04 05:47 | 57.09869 | -25.45681 | 36231 ft | 453 kts | 271° |
| 2026-05-04 05:48 | 57.09822 | -25.57278 | 36224 ft | 453 kts | 271° |
| 2026-05-04 05:48 | 57.09763 | -25.68877 | 36217 ft | 453 kts | 271° |
| 2026-05-04 05:49 | 57.09695 | -25.80400 | 36224 ft | 453 kts | 271° |
| 2026-05-04 05:49 | 57.09615 | -25.91987 | 36235 ft | 453 kts | 271° |
| 2026-05-04 05:51 | 57.09191 | -26.38355 | 36240 ft | 453 kts | 270° |
| 2026-05-04 05:52 | 57.09058 | -26.49923 | 36236 ft | 452 kts | 270° |
| 2026-05-04 05:52 | 57.08915 | -26.61471 | 36237 ft | 451 kts | 270° |
| 2026-05-04 05:54 | 57.08237 | -27.07612 | 36245 ft | 451 kts | 269° |
| 2026-05-04 05:55 | 57.08040 | -27.19185 | 36236 ft | 452 kts | 269° |
| 2026-05-04 05:55 | 57.07835 | -27.30660 | 36253 ft | 452 kts | 269° |
| 2026-05-04 05:56 | 57.07618 | -27.42210 | 36244 ft | 452 kts | 269° |
| 2026-05-04 05:56 | 57.07389 | -27.53766 | 36253 ft | 452 kts | 269° |
| 2026-05-04 05:57 | 57.07151 | -27.65310 | 36241 ft | 452 kts | 268° |
| 2026-05-04 05:57 | 57.06901 | -27.76848 | 36262 ft | 451 kts | 268° |
| 2026-05-04 05:58 | 57.06643 | -27.88369 | 36253 ft | 451 kts | 268° |
| 2026-05-04 05:58 | 57.06374 | -27.99817 | 36264 ft | 450 kts | 268° |
| 2026-05-04 05:59 | 57.06094 | -28.11323 | 36257 ft | 451 kts | 268° |
| 2026-05-04 05:59 | 57.05803 | -28.22848 | 36263 ft | 451 kts | 268° |
| 2026-05-04 06:00 | 57.05503 | -28.34297 | 36253 ft | 453 kts | 268° |
| 2026-05-04 06:00 | 57.05190 | -28.45850 | 36262 ft | 452 kts | 268° |
| 2026-05-04 06:01 | 57.04867 | -28.57383 | 36259 ft | 452 kts | 268° |
| 2026-05-04 06:03 | 57.03468 | -29.03503 | 36273 ft | 453 kts | 267° |
| 2026-05-04 06:05 | 57.01764 | -29.53394 | 36272 ft | 452 kts | 266° |
| 2026-05-04 06:06 | 57.01342 | -29.64931 | 36269 ft | 454 kts | 266° |
| 2026-05-04 06:06 | 57.00908 | -29.76508 | 36281 ft | 455 kts | 266° |
| 2026-05-04 06:07 | 57.00466 | -29.88108 | 36276 ft | 456 kts | 266° |
| 2026-05-04 06:07 | 57.00054 | -29.99689 | 36278 ft | 453 kts | 269° |
| 2026-05-04 06:08 | 57.00379 | -30.11223 | 36280 ft | 453 kts | 274° |
| 2026-05-04 06:08 | 57.00852 | -30.22702 | 36281 ft | 454 kts | 274° |
| 2026-05-04 06:09 | 57.01301 | -30.34249 | 36285 ft | 454 kts | 274° |
| 2026-05-04 06:11 | 57.02939 | -30.80515 | 36289 ft | 454 kts | 274° |
| 2026-05-04 06:13 | 57.04403 | -31.26800 | 36288 ft | 455 kts | 273° |
| 2026-05-04 06:14 | 57.05544 | -31.67315 | 36281 ft | 454 kts | 273° |
| 2026-05-04 06:15 | 57.05846 | -31.78917 | 36288 ft | 454 kts | 272° |
| 2026-05-04 06:15 | 57.06137 | -31.90520 | 36297 ft | 454 kts | 272° |
| 2026-05-04 06:16 | 57.06417 | -32.02093 | 36289 ft | 454 kts | 272° |
| 2026-05-04 06:16 | 57.06688 | -32.13716 | 36293 ft | 455 kts | 272° |
| 2026-05-04 06:17 | 57.06947 | -32.25265 | 36294 ft | 454 kts | 272° |
| 2026-05-04 06:17 | 57.07196 | -32.36877 | 36297 ft | 454 kts | 272° |
| 2026-05-04 06:18 | 57.07434 | -32.48466 | 36290 ft | 453 kts | 272° |
| 2026-05-04 06:20 | 57.08277 | -32.94835 | 36306 ft | 454 kts | 271° |
| 2026-05-04 06:21 | 57.08717 | -33.23799 | 36305 ft | 453 kts | 271° |
| 2026-05-04 06:22 | 57.08874 | -33.35385 | 36292 ft | 453 kts | 271° |
| 2026-05-04 06:25 | 57.09675 | -34.16510 | 36311 ft | 454 kts | 270° |
| 2026-05-04 06:26 | 57.09747 | -34.28107 | 36316 ft | 453 kts | 270° |
| 2026-05-04 06:26 | 57.09808 | -34.39713 | 36311 ft | 454 kts | 270° |
| 2026-05-04 06:27 | 57.09914 | -34.68718 | 36317 ft | 453 kts | 270° |
| 2026-05-04 06:28 | 57.09937 | -34.80223 | 36304 ft | 453 kts | 269° |
| 2026-05-04 06:28 | 57.09950 | -34.91808 | 36313 ft | 453 kts | 269° |
| 2026-05-04 06:29 | 57.09952 | -35.03411 | 36314 ft | 453 kts | 269° |
| 2026-05-04 06:29 | 57.09944 | -35.15023 | 36310 ft | 454 kts | 269° |
| 2026-05-04 06:30 | 57.09925 | -35.26629 | 36316 ft | 453 kts | 269° |
| 2026-05-04 06:30 | 57.09895 | -35.38155 | 36312 ft | 453 kts | 269° |
| 2026-05-04 06:31 | 57.09855 | -35.49769 | 36319 ft | 453 kts | 269° |
| 2026-05-04 06:31 | 57.09803 | -35.61358 | 36313 ft | 453 kts | 269° |
| 2026-05-04 06:33 | 57.09492 | -36.07589 | 36319 ft | 453 kts | 268° |
| 2026-05-04 06:34 | 57.09388 | -36.19185 | 36321 ft | 454 kts | 268° |
| 2026-05-04 06:34 | 57.09272 | -36.30816 | 36315 ft | 454 kts | 268° |
| 2026-05-04 06:36 | 57.08704 | -36.77162 | 36312 ft | 454 kts | 267° |
| 2026-05-04 06:37 | 57.08535 | -36.88766 | 36324 ft | 454 kts | 267° |
| 2026-05-04 06:37 | 57.08355 | -37.00389 | 36321 ft | 455 kts | 267° |
| 2026-05-04 06:38 | 57.08163 | -37.12039 | 36322 ft | 455 kts | 267° |
| 2026-05-04 06:40 | 57.07293 | -37.58530 | 36338 ft | 456 kts | 266° |
| 2026-05-04 06:40 | 57.07046 | -37.70212 | 36324 ft | 457 kts | 266° |
| 2026-05-04 06:41 | 57.06790 | -37.81896 | 36321 ft | 457 kts | 266° |
| 2026-05-04 06:41 | 57.06524 | -37.93498 | 36322 ft | 457 kts | 266° |
| 2026-05-04 06:42 | 57.06245 | -38.05181 | 36326 ft | 457 kts | 266° |
| 2026-05-04 06:44 | 57.05020 | -38.51953 | 36328 ft | 460 kts | 265° |
| 2026-05-04 06:44 | 57.04685 | -38.63705 | 36327 ft | 460 kts | 265° |
| 2026-05-04 06:45 | 57.04342 | -38.75347 | 36321 ft | 460 kts | 265° |
| 2026-05-04 06:45 | 57.03986 | -38.87076 | 36323 ft | 459 kts | 265° |
| 2026-05-04 06:46 | 57.03619 | -38.98765 | 36326 ft | 458 kts | 265° |
| 2026-05-04 06:46 | 57.03242 | -39.10448 | 36325 ft | 458 kts | 265° |
| 2026-05-04 06:48 | 57.01630 | -39.57083 | 36324 ft | 459 kts | 264° |
| 2026-05-04 06:50 | 56.99815 | -40.04060 | 36320 ft | 462 kts | 263° |
| 2026-05-04 06:51 | 56.99136 | -40.15701 | 36323 ft | 461 kts | 262° |
| 2026-05-04 06:51 | 56.98393 | -40.27389 | 36322 ft | 461 kts | 262° |
| 2026-05-04 06:52 | 56.97659 | -40.39081 | 36323 ft | 462 kts | 262° |
| 2026-05-04 06:52 | 56.96932 | -40.50786 | 36324 ft | 463 kts | 262° |
| 2026-05-04 06:53 | 56.96324 | -40.60542 | 36322 ft | 463 kts | 262° |
| 2026-05-04 06:53 | 56.95461 | -40.74175 | 36329 ft | 463 kts | 262° |
| 2026-05-04 06:54 | 56.94828 | -40.84003 | 36316 ft | 463 kts | 262° |
| 2026-05-04 06:54 | 56.94068 | -40.95654 | 36321 ft | 462 kts | 262° |
| 2026-05-04 06:55 | 56.93292 | -41.07372 | 36323 ft | 463 kts | 261° |
| 2026-05-04 06:55 | 56.92503 | -41.19106 | 36323 ft | 464 kts | 261° |
| 2026-05-04 06:57 | 56.89238 | -41.66015 | 36323 ft | 465 kts | 261° |
| 2026-05-04 06:58 | 56.88390 | -41.77780 | 36324 ft | 466 kts | 261° |
| 2026-05-04 06:58 | 56.87531 | -41.89555 | 36319 ft | 467 kts | 261° |
| 2026-05-04 06:59 | 56.86665 | -42.01251 | 36317 ft | 467 kts | 261° |
| 2026-05-04 06:59 | 56.85784 | -42.13013 | 36318 ft | 466 kts | 261° |
| 2026-05-04 07:01 | 56.82154 | -42.59917 | 36316 ft | 468 kts | 260° |
| 2026-05-04 07:02 | 56.81214 | -42.71684 | 36315 ft | 468 kts | 260° |
| 2026-05-04 07:02 | 56.80263 | -42.83458 | 36326 ft | 468 kts | 260° |
| 2026-05-04 07:03 | 56.79302 | -42.95209 | 36310 ft | 468 kts | 260° |
| 2026-05-04 07:03 | 56.78334 | -43.06912 | 36310 ft | 468 kts | 259° |
| 2026-05-04 07:04 | 56.77349 | -43.18662 | 36317 ft | 468 kts | 259° |
| 2026-05-04 07:04 | 56.76355 | -43.30397 | 36314 ft | 469 kts | 259° |
| 2026-05-04 07:05 | 56.75347 | -43.42152 | 36310 ft | 469 kts | 259° |
| 2026-05-04 07:05 | 56.74335 | -43.53825 | 36313 ft | 469 kts | 259° |
| 2026-05-04 07:06 | 56.72785 | -43.71448 | 36318 ft | 469 kts | 259° |
| 2026-05-04 07:07 | 56.71738 | -43.83194 | 36309 ft | 470 kts | 259° |
| 2026-05-04 07:09 | 56.67431 | -44.30190 | 36298 ft | 471 kts | 258° |
| 2026-05-04 07:09 | 56.66332 | -44.41864 | 36298 ft | 471 kts | 258° |
| 2026-05-04 07:10 | 56.65215 | -44.53606 | 36298 ft | 471 kts | 258° |
| 2026-05-04 07:12 | 56.60635 | -45.00520 | 36297 ft | 471 kts | 258° |
| 2026-05-04 07:12 | 56.59463 | -45.12219 | 36282 ft | 471 kts | 258° |
| 2026-05-04 07:13 | 56.58282 | -45.23906 | 36288 ft | 470 kts | 258° |
| 2026-05-04 07:13 | 56.57099 | -45.35489 | 36286 ft | 470 kts | 258° |
| 2026-05-04 07:14 | 56.54073 | -45.64620 | 36284 ft | 470 kts | 257° |
| 2026-05-04 07:15 | 56.52840 | -45.76286 | 36274 ft | 470 kts | 257° |
| 2026-05-04 07:15 | 56.51608 | -45.87843 | 36267 ft | 470 kts | 257° |
| 2026-05-04 07:16 | 56.50355 | -45.99484 | 36275 ft | 470 kts | 257° |
| 2026-05-04 07:16 | 56.49092 | -46.11111 | 36271 ft | 470 kts | 257° |
| 2026-05-04 07:17 | 56.47819 | -46.22722 | 36265 ft | 470 kts | 257° |
| 2026-05-04 07:17 | 56.46544 | -46.34243 | 36268 ft | 470 kts | 257° |
| 2026-05-04 07:18 | 56.45253 | -46.45808 | 36269 ft | 469 kts | 257° |
| 2026-05-04 07:18 | 56.43950 | -46.57374 | 36264 ft | 469 kts | 256° |
| 2026-05-04 07:19 | 56.42638 | -46.68916 | 36256 ft | 469 kts | 256° |
| 2026-05-04 07:19 | 56.41314 | -46.80463 | 36248 ft | 469 kts | 256° |
| 2026-05-04 07:20 | 56.39980 | -46.91996 | 36261 ft | 468 kts | 256° |
| 2026-05-04 07:20 | 56.38644 | -47.03443 | 36258 ft | 468 kts | 256° |
| 2026-05-04 07:22 | 56.33180 | -47.49287 | 36236 ft | 467 kts | 256° |
| 2026-05-04 07:23 | 56.31787 | -47.60732 | 36237 ft | 467 kts | 255° |
| 2026-05-04 07:23 | 56.30386 | -47.72151 | 36239 ft | 467 kts | 255° |
| 2026-05-04 07:24 | 56.28973 | -47.83567 | 36227 ft | 467 kts | 255° |
| 2026-05-04 07:24 | 56.27549 | -47.94976 | 36226 ft | 467 kts | 255° |
| 2026-05-04 07:26 | 56.21754 | -48.40508 | 36219 ft | 466 kts | 255° |
| 2026-05-04 07:27 | 56.20281 | -48.51856 | 36209 ft | 466 kts | 254° |
| 2026-05-04 07:27 | 56.18808 | -48.63119 | 36209 ft | 466 kts | 254° |
| 2026-05-04 07:28 | 56.17315 | -48.74440 | 36209 ft | 466 kts | 254° |
| 2026-05-04 07:28 | 56.15813 | -48.85751 | 36200 ft | 465 kts | 254° |
| 2026-05-04 07:29 | 56.14300 | -48.97052 | 36200 ft | 465 kts | 254° |
| 2026-05-04 07:29 | 56.12779 | -49.08330 | 36196 ft | 465 kts | 253° |
| 2026-05-04 07:30 | 56.11246 | -49.19610 | 36191 ft | 465 kts | 253° |
| 2026-05-04 07:30 | 56.09706 | -49.30858 | 36182 ft | 464 kts | 253° |
| 2026-05-04 07:31 | 56.08168 | -49.42015 | 36185 ft | 464 kts | 253° |
| 2026-05-04 07:33 | 56.01898 | -49.86704 | 36159 ft | 463 kts | 253° |
| 2026-05-04 07:33 | 56.00296 | -49.97837 | 36163 ft | 462 kts | 251° |
| 2026-05-04 07:34 | 55.98026 | -50.08523 | 36159 ft | 458 kts | 244° |
| 2026-05-04 07:34 | 55.95452 | -50.18948 | 36147 ft | 458 kts | 244° |
| 2026-05-04 07:35 | 55.92910 | -50.29289 | 36157 ft | 458 kts | 244° |
| 2026-05-04 07:35 | 55.90368 | -50.39687 | 36137 ft | 457 kts | 244° |
| 2026-05-04 07:36 | 55.87830 | -50.50056 | 36130 ft | 456 kts | 244° |
| 2026-05-04 07:38 | 55.77625 | -50.91268 | 36117 ft | 455 kts | 243° |
| 2026-05-04 07:38 | 55.75051 | -51.01538 | 36111 ft | 454 kts | 243° |
| 2026-05-04 07:39 | 55.72911 | -51.10041 | 36109 ft | 454 kts | 243° |
| 2026-05-04 07:39 | 55.69909 | -51.21915 | 36105 ft | 453 kts | 243° |
| 2026-05-04 07:40 | 55.67319 | -51.32108 | 36105 ft | 453 kts | 243° |
| 2026-05-04 07:40 | 55.65159 | -51.40574 | 36094 ft | 454 kts | 242° |
| 2026-05-04 07:41 | 55.62123 | -51.52419 | 36088 ft | 453 kts | 242° |
| 2026-05-04 07:41 | 55.59932 | -51.60926 | 36093 ft | 453 kts | 242° |
| 2026-05-04 07:42 | 55.57329 | -51.70994 | 36093 ft | 452 kts | 242° |
| 2026-05-04 07:42 | 55.54699 | -51.81122 | 36086 ft | 452 kts | 242° |
| 2026-05-04 07:43 | 55.52079 | -51.91161 | 36082 ft | 452 kts | 242° |
| 2026-05-04 07:43 | 55.49436 | -52.01248 | 36073 ft | 453 kts | 242° |
| 2026-05-04 07:44 | 55.46783 | -52.11327 | 36073 ft | 453 kts | 242° |